sensor_id;sensor_type;location;lat;lon;timestamp;noise_LAeq;noise_LA_min;noise_LA_max;noise_LA01;noise_LA95
61270;Laerm;47150;53.032;8.960;2023-03-14T00:00:57;36.67;35.46;38.05;;
61270;Laerm;47150;53.032;8.960;2023-03-14T00:03:22;36.69;35.36;37.75;;
61270;Laerm;47150;53.032;8.960;2023-03-14T00:05:48;36.71;35.37;37.88;;
61270;Laerm;47150;53.032;8.960;2023-03-14T00:08:13;36.74;35.39;38.02;;
61270;Laerm;47150;53.032;8.960;2023-03-14T00:10:38;36.72;35.58;38.29;;
61270;Laerm;47150;53.032;8.960;2023-03-14T00:13:04;36.71;35.30;37.85;;
61270;Laerm;47150;53.032;8.960;2023-03-14T00:15:29;36.75;35.54;37.91;;
61270;Laerm;47150;53.032;8.960;2023-03-14T00:17:56;36.81;35.55;38.03;;
61270;Laerm;47150;53.032;8.960;2023-03-14T00:20:22;36.88;35.43;38.00;;
61270;Laerm;47150;53.032;8.960;2023-03-14T00:22:47;36.95;35.45;38.17;;
61270;Laerm;47150;53.032;8.960;2023-03-14T00:25:12;36.91;35.79;38.02;;
61270;Laerm;47150;53.032;8.960;2023-03-14T00:27:38;36.87;35.72;38.06;;
61270;Laerm;47150;53.032;8.960;2023-03-14T00:30:04;36.81;35.51;38.03;;
61270;Laerm;47150;53.032;8.960;2023-03-14T00:32:30;36.80;35.67;37.96;;
61270;Laerm;47150;53.032;8.960;2023-03-14T00:34:55;36.85;35.68;37.99;;
61270;Laerm;47150;53.032;8.960;2023-03-14T00:37:21;36.91;35.68;38.15;;
61270;Laerm;47150;53.032;8.960;2023-03-14T00:39:46;36.96;35.76;38.06;;
61270;Laerm;47150;53.032;8.960;2023-03-14T00:42:13;37.14;35.85;38.30;;
61270;Laerm;47150;53.032;8.960;2023-03-14T00:44:38;37.30;35.93;38.61;;
61270;Laerm;47150;53.032;8.960;2023-03-14T00:47:03;37.43;36.20;38.50;;
61270;Laerm;47150;53.032;8.960;2023-03-14T00:49:29;37.50;36.25;38.69;;
61270;Laerm;47150;53.032;8.960;2023-03-14T00:51:54;37.49;36.33;38.56;;
61270;Laerm;47150;53.032;8.960;2023-03-14T00:54:20;37.47;36.09;38.64;;
61270;Laerm;47150;53.032;8.960;2023-03-14T00:56:46;37.39;36.19;38.54;;
61270;Laerm;47150;53.032;8.960;2023-03-14T00:59:11;37.30;35.88;39.02;;
61270;Laerm;47150;53.032;8.960;2023-03-14T01:01:37;37.29;36.09;38.50;;
61270;Laerm;47150;53.032;8.960;2023-03-14T01:04:03;37.38;36.00;38.49;;
61270;Laerm;47150;53.032;8.960;2023-03-14T01:06:28;35.98;33.43;38.56;;
61270;Laerm;47150;53.032;8.960;2023-03-14T01:08:55;33.98;32.44;35.40;;
61270;Laerm;47150;53.032;8.960;2023-03-14T01:11:26;33.24;31.87;34.54;;
61270;Laerm;47150;53.032;8.960;2023-03-14T01:13:52;32.80;31.58;33.90;;
61270;Laerm;47150;53.032;8.960;2023-03-14T01:16:20;32.50;31.25;33.63;;
61270;Laerm;47150;53.032;8.960;2023-03-14T01:18:46;32.27;30.82;33.52;;
61270;Laerm;47150;53.032;8.960;2023-03-14T01:21:15;32.15;31.01;33.12;;
61270;Laerm;47150;53.032;8.960;2023-03-14T01:23:41;32.09;30.73;33.31;;
61270;Laerm;47150;53.032;8.960;2023-03-14T01:26:12;32.17;31.07;33.25;;
61270;Laerm;47150;53.032;8.960;2023-03-14T01:28:38;32.62;31.13;34.04;;
61270;Laerm;47150;53.032;8.960;2023-03-14T01:31:05;33.57;32.00;35.13;;
61270;Laerm;47150;53.032;8.960;2023-03-14T01:33:31;34.76;33.35;36.17;;
61270;Laerm;47150;53.032;8.960;2023-03-14T01:35:57;35.55;34.27;36.79;;
61270;Laerm;47150;53.032;8.960;2023-03-14T01:38:22;35.90;34.69;37.14;;
61270;Laerm;47150;53.032;8.960;2023-03-14T01:40:48;36.03;34.78;37.25;;
61270;Laerm;47150;53.032;8.960;2023-03-14T01:43:19;36.05;34.61;37.16;;
61270;Laerm;47150;53.032;8.960;2023-03-14T01:48:47;35.99;34.61;37.27;;
61270;Laerm;47150;53.032;8.960;2023-03-14T01:53:52;35.78;34.54;37.03;;
61270;Laerm;47150;53.032;8.960;2023-03-14T01:56:19;35.69;34.34;36.81;;
61270;Laerm;47150;53.032;8.960;2023-03-14T01:58:47;35.63;34.31;36.68;;
61270;Laerm;47150;53.032;8.960;2023-03-14T02:01:16;35.64;34.41;36.80;;
61270;Laerm;47150;53.032;8.960;2023-03-14T02:03:50;35.65;34.50;36.75;;
61270;Laerm;47150;53.032;8.960;2023-03-14T02:06:22;35.66;34.40;36.74;;
61270;Laerm;47150;53.032;8.960;2023-03-14T02:08:50;35.71;34.49;36.77;;
61270;Laerm;47150;53.032;8.960;2023-03-14T02:11:17;35.75;34.52;36.88;;
61270;Laerm;47150;53.032;8.960;2023-03-14T02:13:43;35.83;34.56;37.14;;
61270;Laerm;47150;53.032;8.960;2023-03-14T02:16:09;35.92;34.65;37.14;;
61270;Laerm;47150;53.032;8.960;2023-03-14T02:18:34;35.98;34.69;37.20;;
61270;Laerm;47150;53.032;8.960;2023-03-14T02:21:05;36.08;34.72;37.32;;
61270;Laerm;47150;53.032;8.960;2023-03-14T02:26:21;36.33;35.18;37.52;;
61270;Laerm;47150;53.032;8.960;2023-03-14T02:28:48;36.48;35.15;37.75;;
61270;Laerm;47150;53.032;8.960;2023-03-14T02:31:15;36.57;35.41;37.73;;
61270;Laerm;47150;53.032;8.960;2023-03-14T02:33:40;36.66;35.38;37.64;;
61270;Laerm;47150;53.032;8.960;2023-03-14T02:36:09;36.70;35.41;37.86;;
61270;Laerm;47150;53.032;8.960;2023-03-14T02:38:45;36.81;35.63;37.86;;
61270;Laerm;47150;53.032;8.960;2023-03-14T02:41:12;36.89;35.53;38.11;;
61270;Laerm;47150;53.032;8.960;2023-03-14T02:46:07;37.09;35.61;38.44;;
61270;Laerm;47150;53.032;8.960;2023-03-14T02:48:36;37.25;35.87;38.43;;
61270;Laerm;47150;53.032;8.960;2023-03-14T02:51:05;37.38;36.05;38.64;;
61270;Laerm;47150;53.032;8.960;2023-03-14T02:53:35;37.58;36.29;39.08;;
61270;Laerm;47150;53.032;8.960;2023-03-14T02:56:01;37.79;36.51;39.10;;
61270;Laerm;47150;53.032;8.960;2023-03-14T02:58:27;37.95;36.77;39.26;;
61270;Laerm;47150;53.032;8.960;2023-03-14T03:00:53;38.05;36.77;39.33;;
61270;Laerm;47150;53.032;8.960;2023-03-14T03:03:19;38.14;36.87;39.43;;
61270;Laerm;47150;53.032;8.960;2023-03-14T03:05:52;38.22;36.99;39.38;;
61270;Laerm;47150;53.032;8.960;2023-03-14T03:08:22;38.26;37.06;39.50;;
61270;Laerm;47150;53.032;8.960;2023-03-14T03:10:49;38.34;37.21;39.52;;
61270;Laerm;47150;53.032;8.960;2023-03-14T03:13:16;38.41;37.04;39.75;;
61270;Laerm;47150;53.032;8.960;2023-03-14T03:15:41;38.45;37.15;39.68;;
61270;Laerm;47150;53.032;8.960;2023-03-14T03:18:07;38.58;37.28;39.79;;
61270;Laerm;47150;53.032;8.960;2023-03-14T03:20:32;38.59;37.32;39.78;;
61270;Laerm;47150;53.032;8.960;2023-03-14T03:23:01;38.64;37.21;39.90;;
61270;Laerm;47150;53.032;8.960;2023-03-14T03:25:26;38.65;37.34;39.87;;
61270;Laerm;47150;53.032;8.960;2023-03-14T03:27:52;38.67;37.44;39.80;;
61270;Laerm;47150;53.032;8.960;2023-03-14T03:30:18;38.69;37.28;39.95;;
61270;Laerm;47150;53.032;8.960;2023-03-14T03:32:44;38.72;37.43;39.99;;
61270;Laerm;47150;53.032;8.960;2023-03-14T03:35:09;38.72;37.23;40.02;;
61270;Laerm;47150;53.032;8.960;2023-03-14T03:37:35;38.67;37.42;39.92;;
61270;Laerm;47150;53.032;8.960;2023-03-14T03:40:00;38.70;37.38;40.06;;
61270;Laerm;47150;53.032;8.960;2023-03-14T03:42:27;38.71;37.55;39.86;;
61270;Laerm;47150;53.032;8.960;2023-03-14T03:44:52;38.69;37.33;39.86;;
61270;Laerm;47150;53.032;8.960;2023-03-14T03:47:18;38.71;37.23;39.93;;
61270;Laerm;47150;53.032;8.960;2023-03-14T03:49:43;37.50;34.30;44.37;;
61270;Laerm;47150;53.032;8.960;2023-03-14T03:52:08;35.37;33.84;37.40;;
61270;Laerm;47150;53.032;8.960;2023-03-14T03:54:34;37.45;35.49;39.09;;
61270;Laerm;47150;53.032;8.960;2023-03-14T03:57:00;37.32;35.58;38.72;;
61270;Laerm;47150;53.032;8.960;2023-03-14T03:59:25;37.30;35.71;38.54;;
61270;Laerm;47150;53.032;8.960;2023-03-14T04:01:50;35.57;33.96;37.77;;
61270;Laerm;47150;53.032;8.960;2023-03-14T04:04:16;34.37;32.88;35.74;;
61270;Laerm;47150;53.032;8.960;2023-03-14T04:06:41;33.66;32.34;35.14;;
61270;Laerm;47150;53.032;8.960;2023-03-14T04:09:10;33.23;32.00;34.45;;
61270;Laerm;47150;53.032;8.960;2023-03-14T04:11:36;32.91;31.48;34.03;;
61270;Laerm;47150;53.032;8.960;2023-03-14T04:14:01;32.69;31.37;33.97;;
61270;Laerm;47150;53.032;8.960;2023-03-14T04:16:27;32.50;31.41;33.53;;
61270;Laerm;47150;53.032;8.960;2023-03-14T04:18:53;32.34;31.04;33.48;;
61270;Laerm;47150;53.032;8.960;2023-03-14T04:21:19;32.21;30.95;33.33;;
61270;Laerm;47150;53.032;8.960;2023-03-14T04:23:44;32.18;30.97;33.27;;
61270;Laerm;47150;53.032;8.960;2023-03-14T04:26:10;32.38;31.09;33.76;;
61270;Laerm;47150;53.032;8.960;2023-03-14T04:28:35;33.21;31.68;34.62;;
61270;Laerm;47150;53.032;8.960;2023-03-14T04:31:12;34.73;32.73;36.54;;
61270;Laerm;47150;53.032;8.960;2023-03-14T04:33:38;35.87;34.37;37.10;;
61270;Laerm;47150;53.032;8.960;2023-03-14T04:36:04;36.40;35.05;37.72;;
61270;Laerm;47150;53.032;8.960;2023-03-14T04:38:30;36.67;35.45;37.70;;
61270;Laerm;47150;53.032;8.960;2023-03-14T04:40:56;36.90;35.61;37.90;;
61270;Laerm;47150;53.032;8.960;2023-03-14T04:43:21;37.03;35.83;38.25;;
61270;Laerm;47150;53.032;8.960;2023-03-14T04:45:47;37.14;35.57;38.37;;
61270;Laerm;47150;53.032;8.960;2023-03-14T04:48:12;37.28;36.07;38.52;;
61270;Laerm;47150;53.032;8.960;2023-03-14T04:50:38;37.33;36.20;38.76;;
61270;Laerm;47150;53.032;8.960;2023-03-14T04:53:04;37.43;36.20;38.60;;
61270;Laerm;47150;53.032;8.960;2023-03-14T04:55:31;37.56;36.27;38.68;;
61270;Laerm;47150;53.032;8.960;2023-03-14T04:57:58;37.59;36.33;38.71;;
61270;Laerm;47150;53.032;8.960;2023-03-14T05:00:23;37.63;36.48;38.82;;
61270;Laerm;47150;53.032;8.960;2023-03-14T05:02:49;37.69;36.47;38.80;;
61270;Laerm;47150;53.032;8.960;2023-03-14T05:05:14;37.68;36.33;39.31;;
61270;Laerm;47150;53.032;8.960;2023-03-14T05:07:40;37.55;36.11;38.59;;
61270;Laerm;47150;53.032;8.960;2023-03-14T05:10:05;37.52;36.21;39.52;;
61270;Laerm;47150;53.032;8.960;2023-03-14T05:12:31;37.66;36.20;38.78;;
61270;Laerm;47150;53.032;8.960;2023-03-14T05:14:56;37.77;36.39;38.87;;
61270;Laerm;47150;53.032;8.960;2023-03-14T05:17:22;37.94;36.78;39.24;;
61270;Laerm;47150;53.032;8.960;2023-03-14T05:19:47;38.06;36.61;39.28;;
61270;Laerm;47150;53.032;8.960;2023-03-14T05:22:12;38.14;36.98;39.29;;
61270;Laerm;47150;53.032;8.960;2023-03-14T05:24:38;38.14;36.92;39.51;;
61270;Laerm;47150;53.032;8.960;2023-03-14T05:27:04;38.16;37.05;39.40;;
61270;Laerm;47150;53.032;8.960;2023-03-14T05:29:29;38.16;36.98;39.39;;
61270;Laerm;47150;53.032;8.960;2023-03-14T05:31:55;38.15;36.96;39.21;;
61270;Laerm;47150;53.032;8.960;2023-03-14T05:34:20;38.12;36.90;39.45;;
61270;Laerm;47150;53.032;8.960;2023-03-14T05:36:45;38.10;36.82;39.40;;
61270;Laerm;47150;53.032;8.960;2023-03-14T05:39:11;38.05;36.81;41.55;;
61270;Laerm;47150;53.032;8.960;2023-03-14T05:41:36;38.00;36.78;39.07;;
61270;Laerm;47150;53.032;8.960;2023-03-14T05:44:02;37.89;36.73;38.97;;
61270;Laerm;47150;53.032;8.960;2023-03-14T05:46:27;37.87;36.69;39.21;;
61270;Laerm;47150;53.032;8.960;2023-03-14T05:48:52;37.82;36.56;39.14;;
61270;Laerm;47150;53.032;8.960;2023-03-14T05:51:18;37.76;36.30;39.09;;
61270;Laerm;47150;53.032;8.960;2023-03-14T05:53:43;37.64;36.33;38.83;;
61270;Laerm;47150;53.032;8.960;2023-03-14T05:56:08;37.65;36.22;39.06;;
61270;Laerm;47150;53.032;8.960;2023-03-14T05:58:34;37.66;36.47;39.51;;
61270;Laerm;47150;53.032;8.960;2023-03-14T06:01:04;37.56;36.31;38.86;;
61270;Laerm;47150;53.032;8.960;2023-03-14T06:03:30;37.57;36.24;47.06;;
61270;Laerm;47150;53.032;8.960;2023-03-14T06:05:56;37.58;36.31;38.78;;
61270;Laerm;47150;53.032;8.960;2023-03-14T06:08:21;37.64;36.19;38.78;;
61270;Laerm;47150;53.032;8.960;2023-03-14T06:10:46;37.74;36.45;39.11;;
61270;Laerm;47150;53.032;8.960;2023-03-14T06:13:12;37.80;36.64;39.27;;
61270;Laerm;47150;53.032;8.960;2023-03-14T06:15:38;37.78;36.47;39.21;;
61270;Laerm;47150;53.032;8.960;2023-03-14T06:18:03;37.77;36.51;39.81;;
61270;Laerm;47150;53.032;8.960;2023-03-14T06:20:29;37.75;36.50;38.87;;
61270;Laerm;47150;53.032;8.960;2023-03-14T06:22:54;37.72;36.47;39.05;;
61270;Laerm;47150;53.032;8.960;2023-03-14T06:25:19;37.76;36.63;38.97;;
61270;Laerm;47150;53.032;8.960;2023-03-14T06:27:45;37.74;36.40;38.91;;
61270;Laerm;47150;53.032;8.960;2023-03-14T06:30:11;37.70;36.33;41.26;;
61270;Laerm;47150;53.032;8.960;2023-03-14T06:32:36;37.68;36.49;39.23;;
61270;Laerm;47150;53.032;8.960;2023-03-14T06:35:01;37.71;36.24;38.97;;
61270;Laerm;47150;53.032;8.960;2023-03-14T06:37:28;37.75;36.58;39.01;;
61270;Laerm;47150;53.032;8.960;2023-03-14T06:39:54;37.81;36.66;38.93;;
61270;Laerm;47150;53.032;8.960;2023-03-14T06:42:20;37.85;36.63;38.92;;
61270;Laerm;47150;53.032;8.960;2023-03-14T06:44:45;37.90;36.46;39.22;;
61270;Laerm;47150;53.032;8.960;2023-03-14T06:47:11;37.89;36.70;39.15;;
61270;Laerm;47150;53.032;8.960;2023-03-14T06:49:37;37.84;36.67;39.05;;
61270;Laerm;47150;53.032;8.960;2023-03-14T06:52:02;37.67;36.22;38.81;;
61270;Laerm;47150;53.032;8.960;2023-03-14T06:54:27;37.31;36.08;38.58;;
61270;Laerm;47150;53.032;8.960;2023-03-14T06:56:53;37.01;35.53;38.21;;
61270;Laerm;47150;53.032;8.960;2023-03-14T06:59:18;37.22;35.84;38.30;;
61270;Laerm;47150;53.032;8.960;2023-03-14T07:01:43;37.48;36.15;38.78;;
61270;Laerm;47150;53.032;8.960;2023-03-14T07:04:09;37.67;36.40;39.32;;
61270;Laerm;47150;53.032;8.960;2023-03-14T07:06:35;37.76;36.63;38.83;;
61270;Laerm;47150;53.032;8.960;2023-03-14T07:09:00;37.81;36.56;38.94;;
61270;Laerm;47150;53.032;8.960;2023-03-14T07:11:26;37.91;36.63;39.02;;
61270;Laerm;47150;53.032;8.960;2023-03-14T07:13:51;38.03;36.78;42.35;;
61270;Laerm;47150;53.032;8.960;2023-03-14T07:16:16;38.14;36.90;39.66;;
61270;Laerm;47150;53.032;8.960;2023-03-14T07:18:42;38.25;37.13;40.20;;
61270;Laerm;47150;53.032;8.960;2023-03-14T07:21:08;38.34;37.04;42.10;;
61270;Laerm;47150;53.032;8.960;2023-03-14T07:23:37;38.35;36.99;39.66;;
61270;Laerm;47150;53.032;8.960;2023-03-14T07:26:03;38.42;37.31;39.73;;
61270;Laerm;47150;53.032;8.960;2023-03-14T07:28:28;38.50;37.33;39.55;;
61270;Laerm;47150;53.032;8.960;2023-03-14T07:30:54;38.51;37.21;40.01;;
61270;Laerm;47150;53.032;8.960;2023-03-14T07:33:19;38.53;37.17;39.95;;
61270;Laerm;47150;53.032;8.960;2023-03-14T07:35:47;38.52;37.26;39.92;;
61270;Laerm;47150;53.032;8.960;2023-03-14T07:38:13;38.53;37.25;39.97;;
61270;Laerm;47150;53.032;8.960;2023-03-14T07:40:38;38.61;37.27;39.90;;
61270;Laerm;47150;53.032;8.960;2023-03-14T07:43:04;38.72;37.41;39.99;;
61270;Laerm;47150;53.032;8.960;2023-03-14T07:45:29;38.72;37.52;40.16;;
61270;Laerm;47150;53.032;8.960;2023-03-14T07:47:54;38.70;37.47;39.91;;
61270;Laerm;47150;53.032;8.960;2023-03-14T07:50:23;38.69;37.26;40.08;;
61270;Laerm;47150;53.032;8.960;2023-03-14T07:52:49;38.66;37.27;39.89;;
61270;Laerm;47150;53.032;8.960;2023-03-14T07:55:14;38.63;37.07;39.81;;
61270;Laerm;47150;53.032;8.960;2023-03-14T07:57:40;38.61;37.35;39.76;;
61270;Laerm;47150;53.032;8.960;2023-03-14T08:00:06;38.59;37.32;39.98;;
61270;Laerm;47150;53.032;8.960;2023-03-14T08:02:32;38.56;37.21;39.90;;
61270;Laerm;47150;53.032;8.960;2023-03-14T08:04:57;38.54;37.19;39.84;;
61270;Laerm;47150;53.032;8.960;2023-03-14T08:07:23;38.50;37.13;39.73;;
61270;Laerm;47150;53.032;8.960;2023-03-14T08:09:48;38.36;37.14;39.55;;
61270;Laerm;47150;53.032;8.960;2023-03-14T08:12:13;38.31;36.98;39.52;;
61270;Laerm;47150;53.032;8.960;2023-03-14T08:14:39;38.31;37.08;39.56;;
61270;Laerm;47150;53.032;8.960;2023-03-14T08:17:04;38.30;36.82;39.60;;
61270;Laerm;47150;53.032;8.960;2023-03-14T08:19:30;38.31;37.03;43.42;;
61270;Laerm;47150;53.032;8.960;2023-03-14T08:21:55;38.26;36.84;40.35;;
61270;Laerm;47150;53.032;8.960;2023-03-14T08:24:21;38.23;36.90;40.26;;
61270;Laerm;47150;53.032;8.960;2023-03-14T08:26:46;38.30;36.72;46.74;;
61270;Laerm;47150;53.032;8.960;2023-03-14T08:29:11;38.21;36.85;46.18;;
61270;Laerm;47150;53.032;8.960;2023-03-14T08:31:37;38.23;36.74;46.35;;
61270;Laerm;47150;53.032;8.960;2023-03-14T08:34:03;38.20;36.87;44.27;;
61270;Laerm;47150;53.032;8.960;2023-03-14T08:36:28;38.19;36.82;41.66;;
61270;Laerm;47150;53.032;8.960;2023-03-14T08:38:54;38.20;36.84;45.92;;
61270;Laerm;47150;53.032;8.960;2023-03-14T08:41:20;38.39;36.92;49.66;;
61270;Laerm;47150;53.032;8.960;2023-03-14T08:43:45;38.19;36.66;48.77;;
61270;Laerm;47150;53.032;8.960;2023-03-14T08:46:10;38.17;36.87;43.08;;
61270;Laerm;47150;53.032;8.960;2023-03-14T08:48:36;38.35;36.83;42.20;;
61270;Laerm;47150;53.032;8.960;2023-03-14T08:51:13;36.54;34.14;39.66;;
61270;Laerm;47150;53.032;8.960;2023-03-14T08:53:39;34.65;33.21;40.25;;
61270;Laerm;47150;53.032;8.960;2023-03-14T08:56:05;33.80;32.47;35.20;;
61270;Laerm;47150;53.032;8.960;2023-03-14T08:58:32;33.31;31.88;34.57;;
61270;Laerm;47150;53.032;8.960;2023-03-14T09:00:57;32.97;31.83;34.06;;
61270;Laerm;47150;53.032;8.960;2023-03-14T09:03:23;32.73;31.57;33.88;;
61270;Laerm;47150;53.032;8.960;2023-03-14T09:05:50;32.55;31.43;33.71;;
61270;Laerm;47150;53.032;8.960;2023-03-14T09:08:15;32.39;31.22;33.66;;
61270;Laerm;47150;53.032;8.960;2023-03-14T09:10:41;32.26;30.99;33.51;;
61270;Laerm;47150;53.032;8.960;2023-03-14T09:13:06;32.13;30.66;33.22;;
61270;Laerm;47150;53.032;8.960;2023-03-14T09:15:32;32.01;30.83;33.10;;
61270;Laerm;47150;53.032;8.960;2023-03-14T09:17:57;31.90;30.60;33.07;;
61270;Laerm;47150;53.032;8.960;2023-03-14T09:20:23;31.83;30.51;35.51;;
61270;Laerm;47150;53.032;8.960;2023-03-14T09:22:48;31.73;30.46;33.02;;
61270;Laerm;47150;53.032;8.960;2023-03-14T09:25:13;31.62;30.42;33.03;;
61270;Laerm;47150;53.032;8.960;2023-03-14T09:27:39;31.51;30.28;32.79;;
61270;Laerm;47150;53.032;8.960;2023-03-14T09:30:04;31.45;30.32;32.46;;
61270;Laerm;47150;53.032;8.960;2023-03-14T09:32:30;31.47;30.17;32.59;;
61270;Laerm;47150;53.032;8.960;2023-03-14T09:34:56;31.48;30.22;32.44;;
61270;Laerm;47150;53.032;8.960;2023-03-14T09:37:22;31.40;30.13;32.71;;
61270;Laerm;47150;53.032;8.960;2023-03-14T09:39:47;31.34;30.01;32.60;;
61270;Laerm;47150;53.032;8.960;2023-03-14T09:42:15;31.30;30.12;32.32;;
61270;Laerm;47150;53.032;8.960;2023-03-14T09:44:52;31.25;29.96;32.44;;
61270;Laerm;47150;53.032;8.960;2023-03-14T09:47:18;31.21;29.96;32.28;;
61270;Laerm;47150;53.032;8.960;2023-03-14T09:49:45;31.16;29.93;32.32;;
61270;Laerm;47150;53.032;8.960;2023-03-14T09:52:32;31.13;29.82;32.47;;
61270;Laerm;47150;53.032;8.960;2023-03-14T09:55:02;31.10;30.01;32.30;;
61270;Laerm;47150;53.032;8.960;2023-03-14T09:57:32;31.05;29.94;32.17;;
61270;Laerm;47150;53.032;8.960;2023-03-14T10:00:05;31.00;29.73;32.16;;
61270;Laerm;47150;53.032;8.960;2023-03-14T10:02:41;30.96;29.61;32.13;;
61270;Laerm;47150;53.032;8.960;2023-03-14T10:05:15;30.93;29.69;32.07;;
61270;Laerm;47150;53.032;8.960;2023-03-14T10:07:40;30.91;29.61;32.11;;
61270;Laerm;47150;53.032;8.960;2023-03-14T10:10:12;30.89;29.55;32.08;;
61270;Laerm;47150;53.032;8.960;2023-03-14T10:12:38;30.87;29.74;32.08;;
61270;Laerm;47150;53.032;8.960;2023-03-14T10:15:07;30.84;29.74;31.93;;
61270;Laerm;47150;53.032;8.960;2023-03-14T10:17:46;30.82;29.42;31.91;;
61270;Laerm;47150;53.032;8.960;2023-03-14T10:23:04;30.77;29.63;32.14;;
61270;Laerm;47150;53.032;8.960;2023-03-14T10:25:33;30.75;29.37;31.95;;
61270;Laerm;47150;53.032;8.960;2023-03-14T10:27:59;30.73;29.50;31.95;;
61270;Laerm;47150;53.032;8.960;2023-03-14T10:30:43;30.71;29.26;31.89;;
61270;Laerm;47150;53.032;8.960;2023-03-14T10:33:22;30.70;29.49;31.93;;
61270;Laerm;47150;53.032;8.960;2023-03-14T10:38:39;30.63;29.48;31.77;;
61270;Laerm;47150;53.032;8.960;2023-03-14T10:41:19;30.59;29.35;31.84;;
61270;Laerm;47150;53.032;8.960;2023-03-14T10:43:54;30.55;29.46;31.86;;
61270;Laerm;47150;53.032;8.960;2023-03-14T10:46:23;30.53;29.49;31.67;;
61270;Laerm;47150;53.032;8.960;2023-03-14T10:48:49;30.52;29.34;31.71;;
61270;Laerm;47150;53.032;8.960;2023-03-14T10:53:47;30.48;29.33;31.55;;
61270;Laerm;47150;53.032;8.960;2023-03-14T10:56:16;30.47;29.11;31.56;;
61270;Laerm;47150;53.032;8.960;2023-03-14T10:58:44;30.45;29.35;31.65;;
61270;Laerm;47150;53.032;8.960;2023-03-14T11:01:23;30.45;29.20;31.67;;
61270;Laerm;47150;53.032;8.960;2023-03-14T11:06:44;30.40;29.21;31.47;;
61270;Laerm;47150;53.032;8.960;2023-03-14T11:09:28;30.39;29.18;31.41;;
61270;Laerm;47150;53.032;8.960;2023-03-14T11:12:02;30.37;29.14;31.50;;
61270;Laerm;47150;53.032;8.960;2023-03-14T11:14:36;30.35;29.13;31.37;;
61270;Laerm;47150;53.032;8.960;2023-03-14T11:22:41;30.29;28.88;31.43;;
61270;Laerm;47150;53.032;8.960;2023-03-14T11:25:32;30.28;29.15;31.37;;
61270;Laerm;47150;53.032;8.960;2023-03-14T11:28:10;30.27;28.70;31.42;;
61270;Laerm;47150;53.032;8.960;2023-03-14T11:30:51;30.26;29.06;31.33;;
61270;Laerm;47150;53.032;8.960;2023-03-14T11:33:22;30.25;29.08;31.37;;
61270;Laerm;47150;53.032;8.960;2023-03-14T11:35:59;30.22;28.95;31.36;;
61270;Laerm;47150;53.032;8.960;2023-03-14T11:41:12;30.17;28.97;31.31;;
61270;Laerm;47150;53.032;8.960;2023-03-14T11:43:40;30.13;28.99;31.22;;
61270;Laerm;47150;53.032;8.960;2023-03-14T11:46:24;30.12;28.86;31.24;;
61270;Laerm;47150;53.032;8.960;2023-03-14T11:51:25;30.08;28.78;31.12;;
61270;Laerm;47150;53.032;8.960;2023-03-14T11:54:07;30.07;28.87;31.20;;
61270;Laerm;47150;53.032;8.960;2023-03-14T12:00:15;30.01;28.70;31.30;;
61270;Laerm;47150;53.032;8.960;2023-03-14T12:10:54;29.92;28.53;31.00;;
61270;Laerm;47150;53.032;8.960;2023-03-14T12:13:21;29.90;28.56;30.94;;
61270;Laerm;47150;53.032;8.960;2023-03-14T12:15:55;29.90;28.55;30.96;;
61270;Laerm;47150;53.032;8.960;2023-03-14T12:18:29;29.90;28.77;31.06;;
61270;Laerm;47150;53.032;8.960;2023-03-14T12:21:04;29.90;28.78;31.08;;
61270;Laerm;47150;53.032;8.960;2023-03-14T12:23:37;30.05;28.29;31.31;;
61270;Laerm;47150;53.032;8.960;2023-03-14T12:28:38;30.45;29.16;31.47;;
61270;Laerm;47150;53.032;8.960;2023-03-14T12:34:30;30.05;28.70;31.41;;
61270;Laerm;47150;53.032;8.960;2023-03-14T12:44:48;37.64;34.83;39.68;;
61270;Laerm;47150;53.032;8.960;2023-03-14T12:49:47;37.97;36.49;40.01;;
61270;Laerm;47150;53.032;8.960;2023-03-14T12:52:17;37.42;36.05;38.64;;
61270;Laerm;47150;53.032;8.960;2023-03-14T12:57:45;37.36;36.04;46.59;;
61270;Laerm;47150;53.032;8.960;2023-03-14T13:00:39;37.06;35.53;49.99;;
61270;Laerm;47150;53.032;8.960;2023-03-14T13:06:01;36.97;35.23;48.54;;
61270;Laerm;47150;53.032;8.960;2023-03-14T13:08:44;36.67;35.17;43.74;;
61270;Laerm;47150;53.032;8.960;2023-03-14T13:11:19;36.61;35.10;43.94;;
61270;Laerm;47150;53.032;8.960;2023-03-14T13:13:47;36.41;34.98;37.67;;
61270;Laerm;47150;53.032;8.960;2023-03-14T13:16:18;36.45;34.88;42.54;;
61270;Laerm;47150;53.032;8.960;2023-03-14T13:18:46;36.56;34.95;50.91;;
61270;Laerm;47150;53.032;8.960;2023-03-14T13:21:16;36.20;34.84;41.69;;
61270;Laerm;47150;53.032;8.960;2023-03-14T13:24:05;36.16;34.80;43.65;;
61270;Laerm;47150;53.032;8.960;2023-03-14T13:26:39;36.03;34.39;46.46;;
61270;Laerm;47150;53.032;8.960;2023-03-14T13:31:43;35.67;34.09;41.59;;
61270;Laerm;47150;53.032;8.960;2023-03-14T13:34:10;35.64;34.09;47.98;;
61270;Laerm;47150;53.032;8.960;2023-03-14T13:36:36;37.15;34.14;57.99;;
61270;Laerm;47150;53.032;8.960;2023-03-14T13:39:02;35.92;34.14;52.63;;
61270;Laerm;47150;53.032;8.960;2023-03-14T13:41:30;35.50;34.03;37.91;;
61270;Laerm;47150;53.032;8.960;2023-03-14T13:44:04;35.63;34.10;44.07;;
61270;Laerm;47150;53.032;8.960;2023-03-14T13:46:33;35.79;33.90;52.02;;
61270;Laerm;47150;53.032;8.960;2023-03-14T13:49:02;35.38;33.98;44.23;;
61270;Laerm;47150;53.032;8.960;2023-03-14T13:51:29;35.36;33.74;37.63;;
61270;Laerm;47150;53.032;8.960;2023-03-14T13:53:57;35.40;33.82;42.64;;
61270;Laerm;47150;53.032;8.960;2023-03-14T13:56:27;35.32;33.85;42.29;;
61270;Laerm;47150;53.032;8.960;2023-03-14T13:58:52;35.85;33.79;53.41;;
61270;Laerm;47150;53.032;8.960;2023-03-14T14:01:23;35.43;33.61;44.01;;
61270;Laerm;47150;53.032;8.960;2023-03-14T14:03:52;35.51;33.74;50.54;;
61270;Laerm;47150;53.032;8.960;2023-03-14T14:06:38;35.48;33.65;46.83;;
61270;Laerm;47150;53.032;8.960;2023-03-14T14:11:52;35.36;33.75;44.31;;
61270;Laerm;47150;53.032;8.960;2023-03-14T14:16:46;35.44;33.72;51.85;;
61270;Laerm;47150;53.032;8.960;2023-03-14T14:19:13;34.94;33.28;41.67;;
61270;Laerm;47150;53.032;8.960;2023-03-14T14:21:39;35.68;33.13;53.31;;
61270;Laerm;47150;53.032;8.960;2023-03-14T14:24:05;34.80;32.92;49.28;;
61270;Laerm;47150;53.032;8.960;2023-03-14T14:26:31;34.29;32.57;41.56;;
61270;Laerm;47150;53.032;8.960;2023-03-14T14:29:05;34.49;32.58;49.01;;
61270;Laerm;47150;53.032;8.960;2023-03-14T14:31:31;33.81;32.06;44.28;;
61270;Laerm;47150;53.032;8.960;2023-03-14T14:34:01;34.42;31.93;56.13;;
61270;Laerm;47150;53.032;8.960;2023-03-14T14:36:31;33.61;31.66;47.32;;
61270;Laerm;47150;53.032;8.960;2023-03-14T14:39:01;35.16;31.96;54.04;;
61270;Laerm;47150;53.032;8.960;2023-03-14T14:41:32;34.54;31.82;52.68;;
61270;Laerm;47150;53.032;8.960;2023-03-14T14:43:59;33.78;32.35;43.40;;
61270;Laerm;47150;53.032;8.960;2023-03-14T14:46:28;34.16;32.54;51.01;;
61270;Laerm;47150;53.032;8.960;2023-03-14T14:48:56;34.16;32.26;54.00;;
61270;Laerm;47150;53.032;8.960;2023-03-14T14:51:25;36.82;32.17;60.95;;
61270;Laerm;47150;53.032;8.960;2023-03-14T14:54:03;34.21;32.22;49.62;;
61270;Laerm;47150;53.032;8.960;2023-03-14T14:56:29;37.35;31.91;64.00;;
61270;Laerm;47150;53.032;8.960;2023-03-14T14:58:59;37.03;31.90;61.76;;
61270;Laerm;47150;53.032;8.960;2023-03-14T15:01:32;34.55;31.80;55.12;;